Time;durP1;ratioP1;P1;durP2;ratioP2;P2;SDS_P1;SDS_P2;PMS_P1;PMS_P2;Temp;Humidity;BMP_temperature;BMP_pressure;BME280_temperature;BME280_humidity;BME280_pressure;Samples;Min_cycle;Max_cycle;Signal;HPM_P1;HPM_P2
2021/06/11 00:01:55;;;;;;;10.03;4.60;;;19.70;99.90;;;;;;5031515;28;20245;-75
2021/06/11 00:04:21;;;;;;;10.03;4.20;;;19.70;99.90;;;;;;5024219;28;20297;-74
2021/06/11 00:06:47;;;;;;;13.00;4.90;;;19.70;99.90;;;;;;5027523;28;20202;-71
2021/06/11 00:09:14;;;;;;;12.02;5.07;;;19.60;99.90;;;;;;5030407;28;20452;-72
2021/06/11 00:11:48;;;;;;;15.83;5.83;;;19.50;99.90;;;;;;5030224;28;20276;-74
2021/06/11 00:14:15;;;;;;;14.30;5.50;;;19.50;99.90;;;;;;5030067;28;20284;-71
2021/06/11 00:16:40;;;;;;;11.40;5.43;;;19.50;99.90;;;;;;5024318;28;20927;-72
2021/06/11 00:19:06;;;;;;;13.40;5.73;;;19.50;99.90;;;;;;5029454;28;20300;-72
2021/06/11 00:21:32;;;;;;;13.93;5.83;;;19.40;99.90;;;;;;5022302;28;20252;-72
2021/06/11 00:23:58;;;;;;;12.10;5.47;;;19.40;99.90;;;;;;5029722;28;20189;-71
2021/06/11 00:26:23;;;;;;;12.10;5.67;;;19.30;99.90;;;;;;5023637;28;20250;-72
2021/06/11 00:28:49;;;;;;;11.67;5.60;;;19.30;99.90;;;;;;5029961;28;20189;-72
2021/06/11 00:31:15;;;;;;;13.53;5.40;;;19.20;99.90;;;;;;5023114;28;20191;-71
2021/06/11 00:33:40;;;;;;;13.10;5.10;;;19.10;99.90;;;;;;5020840;28;20203;-72
2021/06/11 00:36:06;;;;;;;14.70;5.50;;;19.10;99.90;;;;;;5024935;28;20670;-72
2021/06/11 00:38:33;;;;;;;10.43;5.00;;;19.00;99.90;;;;;;5027421;28;20545;-72
2021/06/11 00:40:59;;;;;;;12.47;5.40;;;19.00;99.90;;;;;;5029936;28;20765;-76
2021/06/11 00:43:25;;;;;;;9.83;5.10;;;19.00;99.90;;;;;;5030017;28;20239;-75
2021/06/11 00:46:23;;;;;;;12.77;5.47;;;19.00;99.90;;;;;;5030337;28;21011;-75
2021/06/11 00:48:49;;;;;;;11.27;5.23;;;19.00;99.90;;;;;;4961059;28;20215;-71
2021/06/11 00:51:14;;;;;;;12.60;5.20;;;19.00;99.90;;;;;;4950321;28;20188;-72
2021/06/11 00:53:41;;;;;;;12.50;4.60;;;18.90;99.90;;;;;;4948918;29;20195;-73
2021/06/11 00:56:07;;;;;;;12.27;5.27;;;18.70;99.90;;;;;;4955159;28;20523;-78
2021/06/11 00:58:33;;;;;;;13.73;5.50;;;18.60;99.90;;;;;;4949220;28;20202;-71
2021/06/11 01:00:58;;;;;;;11.53;5.00;;;18.60;99.90;;;;;;4948209;28;20194;-71
2021/06/11 01:03:24;;;;;;;14.40;5.50;;;18.60;99.90;;;;;;4951051;29;20192;-71
2021/06/11 01:05:51;;;;;;;12.03;5.13;;;18.60;99.90;;;;;;4929401;29;20222;-73
2021/06/11 01:08:18;;;;;;;12.27;5.67;;;18.60;99.90;;;;;;5006247;22;20229;-75
2021/06/11 01:10:46;;;;;;;11.10;4.97;;;18.60;99.90;;;;;;5007453;28;20212;-75
2021/06/11 01:13:14;;;;;;;13.30;5.17;;;18.60;99.90;;;;;;5010118;28;20184;-74
2021/06/11 01:15:40;;;;;;;10.07;4.57;;;18.60;99.90;;;;;;5011093;28;20189;-75
2021/06/11 01:18:06;;;;;;;10.90;5.03;;;18.60;99.90;;;;;;5010113;28;20198;-75
2021/06/11 01:20:33;;;;;;;11.63;5.20;;;18.50;99.90;;;;;;5011758;28;20200;-74
2021/06/11 01:23:36;;;;;;;15.17;5.50;;;18.50;99.90;;;;;;5008016;28;20206;-71
2021/06/11 01:26:24;;;;;;;11.40;5.10;;;18.40;99.90;;;;;;5001160;28;20566;-74
2021/06/11 01:28:57;;;;;;;9.07;4.80;;;18.40;99.90;;;;;;5011050;28;20192;-73
2021/06/11 01:31:23;;;;;;;11.87;4.80;;;18.40;99.90;;;;;;5007270;28;20533;-77
2021/06/11 01:33:57;;;;;;;14.20;5.20;;;18.40;99.90;;;;;;5008908;28;20439;-72
2021/06/11 01:36:26;;;;;;;10.77;5.27;;;18.40;99.90;;;;;;5007968;28;20581;-71
2021/06/11 01:38:54;;;;;;;10.77;5.37;;;18.40;99.90;;;;;;5007064;28;20220;-73
2021/06/11 01:41:21;;;;;;;13.27;5.50;;;18.40;99.90;;;;;;5010315;28;20267;-71
2021/06/11 01:43:52;;;;;;;10.33;4.60;;;18.30;99.90;;;;;;5007688;28;20233;-74
2021/06/11 01:46:22;;;;;;;12.93;4.80;;;18.30;99.90;;;;;;5012794;28;20289;-74
2021/06/11 01:48:50;;;;;;;11.90;5.00;;;18.30;99.90;;;;;;5006443;28;20201;-74
2021/06/11 01:51:17;;;;;;;14.40;4.80;;;18.40;99.90;;;;;;5014339;28;20225;-72
2021/06/11 01:53:44;;;;;;;14.07;4.90;;;18.40;99.90;;;;;;5009187;28;20247;-72
2021/06/11 01:56:12;;;;;;;10.80;4.87;;;18.40;99.90;;;;;;5011613;28;20189;-72
2021/06/11 01:58:41;;;;;;;12.03;4.93;;;18.40;99.90;;;;;;5009650;28;20255;-74
2021/06/11 02:01:09;;;;;;;14.23;5.10;;;18.40;99.90;;;;;;5006908;23;20242;-72
2021/06/11 02:03:35;;;;;;;11.87;5.00;;;18.40;99.90;;;;;;4995105;28;20280;-72
2021/06/11 02:06:02;;;;;;;11.67;5.17;;;18.30;99.90;;;;;;4986796;28;20190;-72
2021/06/11 02:08:28;;;;;;;12.77;5.03;;;18.30;99.90;;;;;;5004971;23;20229;-71
2021/06/11 02:10:54;;;;;;;13.37;4.87;;;18.30;99.90;;;;;;5010778;28;20442;-70
2021/06/11 02:13:21;;;;;;;11.80;5.10;;;18.30;99.90;;;;;;5011847;28;20181;-73
2021/06/11 02:15:48;;;;;;;10.33;4.80;;;18.30;99.90;;;;;;5012072;28;20213;-76
2021/06/11 02:18:14;;;;;;;10.40;4.80;;;18.30;99.90;;;;;;5011800;28;20276;-74
2021/06/11 02:20:41;;;;;;;13.73;4.63;;;18.20;99.90;;;;;;5007887;28;20211;-74
2021/06/11 02:23:07;;;;;;;11.17;4.67;;;18.20;99.90;;;;;;5011883;28;20598;-74
2021/06/11 02:25:33;;;;;;;8.93;4.30;;;18.20;99.90;;;;;;5013887;28;20219;-74
2021/06/11 02:27:59;;;;;;;13.07;5.03;;;18.10;99.90;;;;;;5004776;28;20209;-75
2021/06/11 02:30:25;;;;;;;14.27;5.00;;;18.10;99.90;;;;;;5010433;28;20592;-74
2021/06/11 02:32:51;;;;;;;11.37;4.67;;;18.10;99.90;;;;;;5006553;23;20767;-75
2021/06/11 02:35:19;;;;;;;11.00;5.30;;;18.00;99.90;;;;;;4992578;28;20162;-77
2021/06/11 02:37:46;;;;;;;12.73;4.67;;;17.80;99.90;;;;;;4977210;28;20174;-74
2021/06/11 02:40:13;;;;;;;13.07;5.50;;;17.80;99.90;;;;;;4987805;28;20391;-71
2021/06/11 02:42:39;;;;;;;11.33;5.23;;;17.80;99.90;;;;;;4985144;28;20191;-74
2021/06/11 02:45:14;;;;;;;12.13;4.87;;;17.90;99.90;;;;;;4987945;28;20211;-75
2021/06/11 02:47:52;;;;;;;12.37;5.13;;;17.80;99.90;;;;;;4994188;28;20670;-74
2021/06/11 02:50:22;;;;;;;13.67;5.47;;;17.80;99.90;;;;;;4991672;28;20226;-76
2021/06/11 02:52:57;;;;;;;11.53;5.20;;;17.80;99.90;;;;;;4991960;28;20225;-75
2021/06/11 02:55:23;;;;;;;11.63;5.07;;;17.80;99.90;;;;;;4984260;28;20189;-73
2021/06/11 02:58:04;;;;;;;18.23;5.97;;;17.70;99.90;;;;;;5028485;23;20375;-72
2021/06/11 03:00:32;;;;;;;14.90;5.60;;;17.60;99.90;;;;;;5031430;28;20511;-72
2021/06/11 03:03:20;;;;;;;14.17;5.77;;;17.60;99.90;;;;;;5024890;28;20213;-72
2021/06/11 03:05:50;;;;;;;11.93;5.10;;;17.50;99.90;;;;;;5027710;28;20260;-72
2021/06/11 03:08:22;;;;;;;13.20;5.40;;;17.50;99.90;;;;;;5025824;28;20294;-71
2021/06/11 03:10:52;;;;;;;12.80;5.33;;;17.50;99.90;;;;;;5045044;28;20642;-73
2021/06/11 03:13:18;;;;;;;13.23;5.37;;;17.60;99.90;;;;;;5026548;28;20691;-73
2021/06/11 03:15:45;;;;;;;15.17;5.50;;;17.60;99.90;;;;;;5025241;28;20280;-74
2021/06/11 03:18:32;;;;;;;11.53;5.67;;;17.50;99.90;;;;;;5029984;28;20193;-76
2021/06/11 03:21:04;;;;;;;14.97;5.73;;;17.50;99.90;;;;;;5027336;28;20188;-74
2021/06/11 03:23:56;;;;;;;11.80;5.53;;;17.50;99.90;;;;;;5027848;28;20678;-76
2021/06/11 03:26:30;;;;;;;12.90;5.70;;;17.50;99.90;;;;;;5026936;28;20374;-72
2021/06/11 03:29:00;;;;;;;14.97;5.40;;;17.50;99.90;;;;;;5029930;28;20271;-74
2021/06/11 03:31:35;;;;;;;15.60;5.70;;;17.40;99.90;;;;;;5011913;28;20234;-75
2021/06/11 03:34:04;;;;;;;14.10;5.77;;;17.30;99.90;;;;;;5030304;28;20164;-75
2021/06/11 03:36:34;;;;;;;14.10;6.27;;;17.30;99.90;;;;;;5016091;23;20248;-73
2021/06/11 03:39:07;;;;;;;14.20;6.07;;;17.30;99.90;;;;;;5010402;28;20664;-73
2021/06/11 03:41:36;;;;;;;16.40;6.00;;;17.30;99.90;;;;;;5009056;28;20691;-72
2021/06/11 03:44:08;;;;;;;14.80;6.70;;;17.40;99.90;;;;;;5007238;28;20670;-72
2021/06/11 03:46:37;;;;;;;13.83;6.10;;;17.50;99.90;;;;;;5007088;28;20237;-72
2021/06/11 03:49:03;;;;;;;18.50;6.53;;;17.50;99.90;;;;;;5009380;28;20289;-73
2021/06/11 03:51:30;;;;;;;16.67;6.73;;;17.50;99.90;;;;;;5011392;28;20250;-75
2021/06/11 03:53:58;;;;;;;19.37;6.90;;;17.50;99.90;;;;;;5021880;28;20178;-74
2021/06/11 03:56:26;;;;;;;15.90;6.33;;;17.60;99.90;;;;;;5038359;23;20224;-88
2021/06/11 03:58:53;;;;;;;14.63;6.40;;;17.70;99.90;;;;;;5031556;28;20232;-88
2021/06/11 04:01:29;;;;;;;16.63;6.17;;;17.80;99.90;;;;;;5015074;23;21764;-76
2021/06/11 04:03:55;;;;;;;13.33;6.47;;;18.10;99.90;;;;;;5021733;28;20638;-75
2021/06/11 04:06:26;;;;;;;16.17;6.70;;;18.30;99.90;;;;;;5011374;28;20182;-75
2021/06/11 04:08:59;;;;;;;14.47;7.30;;;18.30;99.90;;;;;;5010954;28;20190;-75
2021/06/11 04:11:31;;;;;;;18.53;6.40;;;18.20;99.90;;;;;;5008783;28;20250;-75
2021/06/11 04:14:01;;;;;;;16.40;6.90;;;18.20;99.90;;;;;;5011860;28;20521;-75
2021/06/11 04:16:38;;;;;;;15.67;6.20;;;18.20;99.90;;;;;;5007485;28;20194;-71
2021/06/11 04:19:09;;;;;;;14.40;6.50;;;18.20;99.90;;;;;;5013062;28;20205;-74
2021/06/11 04:21:35;;;;;;;12.33;5.53;;;18.40;99.90;;;;;;5008662;28;20525;-76
2021/06/11 04:24:08;;;;;;;12.47;5.23;;;19.00;99.90;;;;;;5009026;28;20213;-73
2021/06/11 04:26:37;;;;;;;15.10;5.80;;;20.00;99.90;;;;;;5007541;28;20806;-73
2021/06/11 04:31:55;;;;;;;11.87;5.30;;;22.20;99.90;;;;;;5006210;28;20242;-74
2021/06/11 04:34:24;;;;;;;13.50;6.27;;;23.20;99.90;;;;;;5006431;28;20205;-71
2021/06/11 04:39:50;;;;;;;13.43;5.90;;;24.50;99.90;;;;;;4946648;29;20249;-77
2021/06/11 04:42:16;;;;;;;13.03;5.67;;;25.30;99.90;;;;;;4967847;28;20270;-76
2021/06/11 04:44:41;;;;;;;13.63;5.70;;;26.00;99.90;;;;;;4969216;28;20192;-77
2021/06/11 04:47:07;;;;;;;13.98;5.72;;;26.70;99.90;;;;;;4980912;28;20211;-76
2021/06/11 04:49:33;;;;;;;14.00;5.50;;;27.10;99.90;;;;;;4972279;28;20254;-76
2021/06/11 04:51:59;;;;;;;14.35;5.60;;;27.70;99.90;;;;;;4971581;28;20190;-76
2021/06/11 04:54:25;;;;;;;12.00;4.80;;;28.30;99.90;;;;;;4983667;22;20590;-72
2021/06/11 04:56:50;;;;;;;10.70;4.63;;;28.70;99.90;;;;;;5007325;28;20261;-72
2021/06/11 04:59:16;;;;;;;12.68;5.07;;;29.20;99.90;;;;;;5006601;28;20539;-72
2021/06/11 05:01:45;;;;;;;11.65;4.47;;;29.80;99.90;;;;;;5007834;28;20249;-72
2021/06/11 05:04:11;;;;;;;11.80;4.72;;;30.20;99.90;;;;;;5005891;28;20182;-72
2021/06/11 05:06:37;;;;;;;10.20;4.32;;;30.50;99.90;;;;;;5006952;28;20244;-72
2021/06/11 05:09:03;;;;;;;12.27;4.32;;;31.10;99.90;;;;;;5005958;28;20181;-72
2021/06/11 05:11:28;;;;;;;12.35;4.75;;;31.70;99.10;;;;;;5009290;28;20236;-73
2021/06/11 05:13:54;;;;;;;9.98;4.65;;;32.10;97.50;;;;;;5013753;28;20264;-72
2021/06/11 05:16:20;;;;;;;9.63;4.82;;;32.60;95.50;;;;;;5010510;28;20624;-72
2021/06/11 05:18:46;;;;;;;10.75;4.20;;;32.60;93.80;;;;;;5007473;28;20185;-71
2021/06/11 05:21:11;;;;;;;8.70;4.13;;;33.10;92.90;;;;;;5008899;28;20188;-72
2021/06/11 05:23:37;;;;;;;8.23;3.42;;;33.50;91.60;;;;;;5014355;28;20927;-72
2021/06/11 05:26:03;;;;;;;8.63;3.58;;;34.00;90.10;;;;;;5013119;28;20593;-73
2021/06/11 05:28:29;;;;;;;8.90;3.78;;;34.20;88.60;;;;;;5010783;28;20190;-72
2021/06/11 05:30:56;;;;;;;9.57;3.50;;;34.30;86.20;;;;;;5008681;28;20718;-73
2021/06/11 05:33:23;;;;;;;8.95;3.38;;;34.40;85.70;;;;;;5007352;28;20273;-72
2021/06/11 05:38:33;;;;;;;8.77;3.97;;;34.70;81.20;;;;;;4991698;28;20245;-76
2021/06/11 05:41:01;;;;;;;9.68;3.10;;;35.00;82.10;;;;;;4992935;28;20242;-73
2021/06/11 05:43:27;;;;;;;6.85;3.20;;;35.30;79.90;;;;;;4990612;28;20182;-76
2021/06/11 05:45:53;;;;;;;5.60;2.58;;;35.00;78.00;;;;;;4993256;28;20294;-76
2021/06/11 05:48:19;;;;;;;5.65;3.00;;;33.80;79.20;;;;;;5019931;23;20241;-78
2021/06/11 05:50:44;;;;;;;9.52;3.40;;;33.10;81.60;;;;;;5008869;28;20202;-76
2021/06/11 05:53:10;;;;;;;7.95;2.90;;;31.30;85.80;;;;;;5009873;28;20512;-78
2021/06/11 05:55:36;;;;;;;8.20;3.38;;;31.30;88.10;;;;;;5013088;28;20730;-75
2021/06/11 05:58:02;;;;;;;9.27;3.33;;;31.20;90.00;;;;;;5012105;28;20264;-75
2021/06/11 06:00:28;;;;;;;8.90;3.20;;;31.20;88.80;;;;;;5012839;28;20247;-75
2021/06/11 06:02:53;;;;;;;9.60;3.67;;;32.30;88.00;;;;;;5011547;28;21418;-79
2021/06/11 06:05:19;;;;;;;6.15;3.00;;;31.70;87.10;;;;;;5010126;28;20197;-75
2021/06/11 06:07:45;;;;;;;7.35;3.20;;;32.10;86.90;;;;;;5011148;28;20259;-76
2021/06/11 06:10:13;;;;;;;6.90;3.08;;;32.30;86.70;;;;;;5012059;28;20719;-77
2021/06/11 06:12:38;;;;;;;6.05;2.97;;;32.90;86.10;;;;;;5013031;28;20197;-76
2021/06/11 06:15:07;;;;;;;6.32;2.97;;;31.90;86.20;;;;;;5010553;28;20644;-73
2021/06/11 06:17:36;;;;;;;6.03;2.95;;;31.30;86.60;;;;;;5010714;28;20181;-76
2021/06/11 06:20:08;;;;;;;5.70;2.95;;;31.10;90.00;;;;;;5008309;28;20675;-73
2021/06/11 06:22:34;;;;;;;6.05;2.95;;;31.60;89.10;;;;;;5009824;28;20205;-72
2021/06/11 06:25:00;;;;;;;5.45;2.80;;;31.00;89.50;;;;;;5007648;28;20181;-74
2021/06/11 06:27:26;;;;;;;7.00;2.88;;;30.00;91.40;;;;;;5005270;28;20562;-72
2021/06/11 06:29:52;;;;;;;6.75;2.90;;;30.70;91.50;;;;;;5007966;28;20201;-72
2021/06/11 06:32:17;;;;;;;6.40;2.97;;;31.70;90.00;;;;;;5012203;28;20174;-75
2021/06/11 06:34:43;;;;;;;5.43;2.58;;;30.60;90.60;;;;;;5007801;28;20185;-75
2021/06/11 06:37:11;;;;;;;6.72;2.83;;;29.90;91.40;;;;;;5011791;28;20632;-78
2021/06/11 06:39:39;;;;;;;6.10;3.28;;;29.80;91.90;;;;;;5010105;28;20181;-76
2021/06/11 06:42:06;;;;;;;5.13;2.78;;;29.90;92.70;;;;;;5011592;28;20182;-75
2021/06/11 06:44:33;;;;;;;5.40;3.10;;;29.30;93.10;;;;;;5010180;28;20285;-75
2021/06/11 06:46:59;;;;;;;5.70;3.08;;;28.90;93.80;;;;;;5013052;28;20226;-75
2021/06/11 06:49:25;;;;;;;6.75;3.40;;;29.30;93.40;;;;;;5012874;28;20265;-76
2021/06/11 06:51:51;;;;;;;7.75;3.28;;;28.50;95.50;;;;;;5009033;28;20189;-75
2021/06/11 06:54:16;;;;;;;6.03;3.25;;;29.70;94.20;;;;;;5012321;28;20272;-74
2021/06/11 06:56:42;;;;;;;7.70;3.22;;;27.90;96.10;;;;;;5006085;28;20723;-72
2021/06/11 06:59:08;;;;;;;6.78;3.03;;;29.10;96.20;;;;;;5007200;28;20185;-72
2021/06/11 07:01:33;;;;;;;7.15;3.30;;;29.70;95.20;;;;;;5007749;28;20190;-72
2021/06/11 07:04:01;;;;;;;8.82;3.17;;;31.10;93.40;;;;;;5010005;28;20204;-73
2021/06/11 07:06:28;;;;;;;6.63;3.00;;;31.40;92.50;;;;;;5006623;28;20213;-73
2021/06/11 07:08:54;;;;;;;6.68;3.30;;;31.70;91.20;;;;;;5012805;28;20178;-76
2021/06/11 07:11:20;;;;;;;6.07;3.25;;;33.20;90.50;;;;;;5010293;28;20238;-76
2021/06/11 07:13:47;;;;;;;6.90;2.80;;;34.60;88.20;;;;;;5005197;28;20193;-76
2021/06/11 07:16:13;;;;;;;5.82;2.97;;;35.50;83.90;;;;;;5010724;28;20216;-76
2021/06/11 07:18:39;;;;;;;5.38;2.83;;;35.20;80.30;;;;;;5011033;28;20158;-76
2021/06/11 07:21:06;;;;;;;5.80;2.60;;;36.30;77.90;;;;;;5009511;28;20644;-75
2021/06/11 07:23:33;;;;;;;4.35;2.70;;;33.70;79.80;;;;;;5010133;28;20215;-72
2021/06/11 07:26:08;;;;;;;5.90;2.55;;;31.20;87.00;;;;;;5006001;28;20299;-72
2021/06/11 07:28:37;;;;;;;4.95;2.50;;;32.90;88.20;;;;;;5007038;28;20600;-75
2021/06/11 07:31:04;;;;;;;6.88;2.45;;;33.00;85.90;;;;;;5010587;28;20201;-75
2021/06/11 07:33:30;;;;;;;6.03;2.70;;;32.50;84.20;;;;;;5009867;28;20240;-72
2021/06/11 07:35:57;;;;;;;6.63;2.50;;;29.10;91.40;;;;;;5006238;28;20545;-74
2021/06/11 07:38:25;;;;;;;7.80;3.20;;;29.10;93.50;;;;;;5005966;28;20182;-72
2021/06/11 07:40:53;;;;;;;5.95;2.65;;;28.50;95.30;;;;;;5008027;28;20182;-74
2021/06/11 07:43:20;;;;;;;5.40;2.30;;;31.50;91.70;;;;;;5011066;28;20553;-75
2021/06/11 07:45:45;;;;;;;6.50;2.67;;;31.30;91.10;;;;;;5009590;28;20190;-72
2021/06/11 07:48:11;;;;;;;6.32;2.40;;;29.90;92.40;;;;;;5006786;28;20233;-72
2021/06/11 07:50:37;;;;;;;5.40;2.25;;;30.30;93.80;;;;;;4994132;28;20260;-72
2021/06/11 07:53:03;;;;;;;6.78;2.42;;;29.60;93.50;;;;;;5007908;28;20655;-71
2021/06/11 07:55:28;;;;;;;4.07;1.95;;;28.10;96.90;;;;;;5000105;28;20194;-72
2021/06/11 07:57:54;;;;;;;5.97;2.50;;;29.50;95.80;;;;;;5009390;28;20181;-76
2021/06/11 08:00:20;;;;;;;6.57;2.00;;;31.20;93.40;;;;;;4995323;28;20198;-77
2021/06/11 08:02:46;;;;;;;5.10;1.85;;;33.60;90.70;;;;;;5008564;28;20185;-72
2021/06/11 08:05:12;;;;;;;7.22;2.53;;;36.20;82.20;;;;;;5010344;28;20269;-72
2021/06/11 08:07:38;;;;;;;5.05;2.00;;;36.70;78.50;;;;;;5008097;28;20197;-76
2021/06/11 08:10:05;;;;;;;7.32;2.33;;;35.60;78.40;;;;;;5008296;28;20344;-72
2021/06/11 08:12:31;;;;;;;6.95;2.58;;;34.60;79.80;;;;;;5007671;28;20225;-75
2021/06/11 08:14:57;;;;;;;3.70;1.92;;;35.10;81.60;;;;;;5011493;28;20206;-76
2021/06/11 08:17:24;;;;;;;5.90;2.25;;;36.00;78.40;;;;;;5010998;28;20178;-75
2021/06/11 08:19:50;;;;;;;5.07;1.95;;;36.70;76.40;;;;;;5008873;28;20273;-72
2021/06/11 08:22:16;;;;;;;5.07;1.80;;;35.40;77.30;;;;;;5009691;28;20268;-78
2021/06/11 08:24:42;;;;;;;3.38;1.40;;;36.00;74.40;;;;;;5006345;28;20197;-72
2021/06/11 08:27:08;;;;;;;4.43;1.40;;;37.50;73.90;;;;;;5005818;28;20668;-72
2021/06/11 08:29:33;;;;;;;3.83;1.50;;;37.70;71.70;;;;;;5005901;28;20560;-72
2021/06/11 08:32:00;;;;;;;4.43;1.80;;;37.20;71.10;;;;;;4999887;28;20209;-72
2021/06/11 08:34:27;;;;;;;4.47;1.55;;;37.30;71.50;;;;;;5007192;28;20188;-77
2021/06/11 08:36:53;;;;;;;8.82;1.42;;;39.20;68.40;;;;;;5009305;28;20232;-75
2021/06/11 08:39:18;;;;;;;4.68;1.10;;;40.30;64.40;;;;;;5004328;28;20185;-78
2021/06/11 08:41:44;;;;;;;2.97;1.17;;;40.50;60.50;;;;;;5007734;28;20185;-77
2021/06/11 08:44:12;;;;;;;5.05;1.15;;;38.20;64.20;;;;;;5008322;28;20578;-75
2021/06/11 08:46:38;;;;;;;4.25;1.30;;;37.30;65.40;;;;;;5005554;28;20303;-73
2021/06/11 08:49:04;;;;;;;3.85;1.50;;;37.50;65.80;;;;;;5008333;28;20193;-72
2021/06/11 08:51:30;;;;;;;7.70;1.70;;;38.70;63.50;;;;;;5005649;28;20534;-72
2021/06/11 08:53:57;;;;;;;5.25;1.92;;;38.20;64.40;;;;;;5011794;28;20178;-73
2021/06/11 08:56:23;;;;;;;4.88;1.55;;;39.00;64.20;;;;;;5006757;28;20193;-73
2021/06/11 08:58:49;;;;;;;3.88;1.50;;;38.70;63.40;;;;;;5005388;28;20182;-73
2021/06/11 09:01:16;;;;;;;2.45;1.55;;;38.70;62.30;;;;;;5002642;28;20200;-72
2021/06/11 09:03:47;;;;;;;6.50;1.70;;;40.00;60.40;;;;;;5006565;28;20181;-73
2021/06/11 09:06:14;;;;;;;4.43;1.73;;;41.40;58.10;;;;;;5006901;28;20193;-75
2021/06/11 09:09:05;;;;;;;4.00;1.85;;;38.00;62.60;;;;;;5009179;28;20225;-76
2021/06/11 09:11:35;;;;;;;7.32;1.80;;;35.60;67.20;;;;;;5006449;28;20194;-75
2021/06/11 09:14:12;;;;;;;6.30;2.00;;;35.90;65.80;;;;;;5009030;28;20190;-72
2021/06/11 09:16:43;;;;;;;5.57;2.30;;;36.80;66.60;;;;;;5005422;28;20235;-73
2021/06/11 09:19:12;;;;;;;4.95;2.30;;;37.90;62.40;;;;;;5003272;28;20223;-73
2021/06/11 09:21:46;;;;;;;3.63;1.95;;;39.60;61.40;;;;;;5004426;28;20726;-73
2021/06/11 09:26:57;;;;;;;4.65;3.40;;;38.50;60.40;;;;;;5005621;28;20190;-72
2021/06/11 09:29:25;;;;;;;5.82;3.50;;;37.50;63.00;;;;;;5007777;28;20228;-75
2021/06/11 09:32:12;;;;;;;6.72;4.80;;;39.90;60.70;;;;;;5006982;28;20271;-72
2021/06/11 09:34:39;;;;;;;7.07;5.05;;;38.60;59.80;;;;;;5003083;28;20262;-77
2021/06/11 09:37:11;;;;;;;8.70;6.10;;;36.90;64.40;;;;;;4989696;28;20287;-73
2021/06/11 09:39:45;;;;;;;9.95;5.35;;;36.30;64.90;;;;;;5005105;28;20204;-72
2021/06/11 09:42:12;;;;;;;7.28;5.40;;;35.40;68.40;;;;;;5009364;28;20189;-72
2021/06/11 09:44:39;;;;;;;6.70;4.53;;;36.20;66.50;;;;;;5003400;28;20214;-76
2021/06/11 09:47:05;;;;;;;7.43;4.30;;;37.20;62.40;;;;;;5008745;28;20226;-73
2021/06/11 09:49:42;;;;;;;5.95;4.45;;;39.20;60.00;;;;;;5000592;28;20220;-77
2021/06/11 09:52:10;;;;;;;7.90;5.25;;;40.90;59.00;;;;;;5005285;28;20194;-75
2021/06/11 09:54:36;;;;;;;7.43;5.20;;;40.80;57.70;;;;;;5012473;28;20208;-76
2021/06/11 09:57:18;;;;;;;8.68;4.95;;;42.10;57.30;;;;;;5009257;28;20332;-76
2021/06/11 09:59:44;;;;;;;7.13;4.50;;;42.60;55.30;;;;;;5009799;28;20193;-77
2021/06/11 10:02:17;;;;;;;4.88;3.10;;;42.10;55.60;;;;;;5010421;28;20656;-77
2021/06/11 10:04:44;;;;;;;6.03;3.45;;;40.80;55.60;;;;;;5013657;28;20604;-76
2021/06/11 10:07:12;;;;;;;5.30;2.72;;;40.20;55.90;;;;;;5012604;28;20186;-77
2021/06/11 10:09:38;;;;;;;5.22;3.33;;;41.00;55.90;;;;;;5009815;28;20305;-73
2021/06/11 10:12:05;;;;;;;5.53;3.17;;;41.00;54.10;;;;;;5009033;28;20194;-72
2021/06/11 10:14:32;;;;;;;4.00;1.70;;;41.00;54.90;;;;;;5011652;28;20194;-76
2021/06/11 10:16:58;;;;;;;3.40;1.85;;;40.00;52.80;;;;;;5014782;28;20214;-76
2021/06/11 10:19:25;;;;;;;3.80;1.70;;;37.50;56.60;;;;;;5009146;28;20196;-76
2021/06/11 10:21:52;;;;;;;3.58;2.15;;;38.20;57.20;;;;;;5012544;28;20216;-72
2021/06/11 10:24:20;;;;;;;4.78;2.28;;;39.40;57.20;;;;;;5010138;28;20186;-72
2021/06/11 10:26:50;;;;;;;4.38;2.53;;;41.00;55.10;;;;;;5007029;28;20201;-73
2021/06/11 10:29:18;;;;;;;2.50;1.30;;;42.30;52.90;;;;;;5007737;28;20200;-76
2021/06/11 10:31:45;;;;;;;1.85;1.08;;;39.10;53.30;;;;;;5011486;28;20206;-73
2021/06/11 10:34:11;;;;;;;2.25;1.30;;;37.50;57.70;;;;;;5013225;28;20204;-72
2021/06/11 10:36:44;;;;;;;1.98;1.10;;;38.90;56.40;;;;;;4994015;28;20177;-75
2021/06/11 10:39:10;;;;;;;2.20;1.33;;;36.30;56.70;;;;;;5007417;28;20177;-78
2021/06/11 10:42:04;;;;;;;4.53;2.15;;;36.70;58.50;;;;;;5008590;28;20284;-74
2021/06/11 10:44:37;;;;;;;3.80;2.15;;;37.30;58.30;;;;;;4989507;28;20889;-74
2021/06/11 10:47:15;;;;;;;5.15;2.25;;;38.30;57.80;;;;;;5007100;28;20754;-75
2021/06/11 10:49:56;;;;;;;3.83;2.00;;;37.00;59.20;;;;;;5024906;28;20224;-75
2021/06/11 10:52:29;;;;;;;3.40;1.90;;;39.10;57.40;;;;;;5009559;28;20185;-75
2021/06/11 10:54:56;;;;;;;3.10;1.80;;;40.20;57.20;;;;;;5001172;28;20190;-74
2021/06/11 10:57:21;;;;;;;2.47;1.63;;;40.10;55.60;;;;;;4995424;28;20609;-78
2021/06/11 10:59:49;;;;;;;3.60;1.33;;;40.90;53.70;;;;;;5006799;28;20192;-78
2021/06/11 11:02:17;;;;;;;4.32;1.50;;;41.40;53.20;;;;;;5007749;28;20201;-74
2021/06/11 11:04:48;;;;;;;3.08;1.52;;;36.70;57.90;;;;;;5011811;28;20177;-75
2021/06/11 11:07:23;;;;;;;4.28;1.90;;;37.60;58.90;;;;;;5009210;28;20185;-74
2021/06/11 11:09:52;;;;;;;3.45;1.60;;;37.60;56.30;;;;;;5008381;28;20263;-78
2021/06/11 11:12:19;;;;;;;3.53;1.30;;;37.60;56.60;;;;;;5010756;28;20197;-77
2021/06/11 11:14:45;;;;;;;2.95;1.45;;;39.40;55.90;;;;;;5010924;28;20182;-75
2021/06/11 11:17:14;;;;;;;2.83;1.30;;;39.90;54.70;;;;;;5012581;28;20182;-77
2021/06/11 11:19:55;;;;;;;2.88;1.25;;;36.30;57.70;;;;;;5008385;28;20197;-78
2021/06/11 11:22:35;;;;;;;6.05;1.90;;;38.30;57.30;;;;;;5026908;28;20185;-74
2021/06/11 11:25:06;;;;;;;4.32;2.03;;;38.50;56.50;;;;;;4990033;28;20292;-74
2021/06/11 11:27:32;;;;;;;5.13;2.13;;;37.70;57.10;;;;;;5011067;28;20300;-74
2021/06/11 11:29:59;;;;;;;6.32;2.22;;;39.10;58.00;;;;;;5008540;28;20262;-75
2021/06/11 11:32:25;;;;;;;6.13;2.20;;;39.80;55.60;;;;;;5006400;28;20186;-74
2021/06/11 11:34:51;;;;;;;9.27;2.50;;;39.70;57.10;;;;;;5010809;28;20700;-74
2021/06/11 11:37:18;;;;;;;7.20;2.30;;;40.60;56.10;;;;;;4995159;28;20237;-77
2021/06/11 11:39:45;;;;;;;7.78;2.65;;;40.20;55.90;;;;;;5011478;28;20182;-77
2021/06/11 11:42:12;;;;;;;4.28;2.30;;;40.40;54.20;;;;;;5009646;28;20553;-77
2021/06/11 11:44:39;;;;;;;5.40;2.22;;;40.00;54.10;;;;;;4993327;28;20585;-78
2021/06/11 11:47:06;;;;;;;5.45;2.97;;;38.90;55.60;;;;;;5013666;28;20304;-80
2021/06/11 11:49:32;;;;;;;6.03;2.85;;;38.80;55.70;;;;;;5006869;28;20318;-80
2021/06/11 11:51:58;;;;;;;4.85;2.38;;;39.50;56.10;;;;;;5013213;28;20742;-80
2021/06/11 11:54:24;;;;;;;6.47;3.33;;;39.90;56.10;;;;;;5011348;28;20263;-78
2021/06/11 11:56:50;;;;;;;11.68;4.85;;;38.60;55.30;;;;;;5008043;28;20213;-78
2021/06/11 11:59:15;;;;;;;8.32;3.88;;;37.20;58.20;;;;;;4994865;28;20189;-78
2021/06/11 12:01:43;;;;;;;10.35;4.50;;;38.00;58.50;;;;;;5007279;28;20205;-79
2021/06/11 12:04:10;;;;;;;11.02;5.55;;;36.90;57.90;;;;;;5024638;28;20610;-78
2021/06/11 12:06:36;;;;;;;9.73;4.50;;;35.80;57.60;;;;;;5010717;28;20173;-79
2021/06/11 12:09:03;;;;;;;10.68;5.70;;;34.20;60.00;;;;;;5011888;28;20188;-79
2021/06/11 12:11:29;;;;;;;11.55;5.60;;;33.60;64.40;;;;;;5012047;28;20656;-79
2021/06/11 12:13:54;;;;;;;11.85;6.47;;;32.20;67.60;;;;;;5013098;28;20184;-79
2021/06/11 12:16:20;;;;;;;13.60;7.22;;;31.30;70.00;;;;;;5010850;28;20264;-79
2021/06/11 12:18:46;;;;;;;13.55;6.03;;;30.20;73.00;;;;;;5009712;28;20585;-77
2021/06/11 12:21:12;;;;;;;14.23;6.85;;;29.50;73.70;;;;;;5010096;28;20189;-76
2021/06/11 12:23:37;;;;;;;11.88;6.70;;;29.30;76.00;;;;;;5008288;28;20683;-76
2021/06/11 12:26:04;;;;;;;12.23;6.22;;;29.10;75.20;;;;;;5007838;28;20221;-78
2021/06/11 12:28:30;;;;;;;10.95;5.82;;;28.80;74.60;;;;;;5011105;28;20656;-76
2021/06/11 12:30:56;;;;;;;12.65;6.93;;;28.90;73.60;;;;;;5009878;28;20284;-76
2021/06/11 12:33:22;;;;;;;14.75;8.10;;;28.90;74.90;;;;;;5009673;28;20258;-76
2021/06/11 12:35:49;;;;;;;13.90;6.88;;;29.00;77.40;;;;;;5010213;28;20223;-77
2021/06/11 12:38:15;;;;;;;16.25;8.02;;;28.90;77.70;;;;;;4996674;28;20189;-77
2021/06/11 12:40:44;;;;;;;15.95;6.85;;;28.70;76.70;;;;;;5006346;28;20700;-77
2021/06/11 12:43:14;;;;;;;12.13;6.28;;;28.80;77.50;;;;;;5008873;28;20731;-77
2021/06/11 12:45:42;;;;;;;13.20;6.50;;;29.10;80.70;;;;;;4992510;28;20212;-77
2021/06/11 12:48:08;;;;;;;13.05;6.28;;;29.40;78.10;;;;;;5009498;28;20348;-76
2021/06/11 12:50:34;;;;;;;9.02;5.03;;;29.70;75.00;;;;;;5005247;28;20211;-76
2021/06/11 12:53:00;;;;;;;13.82;7.22;;;29.60;77.80;;;;;;5011583;28;20190;-74
2021/06/11 12:55:26;;;;;;;12.15;6.00;;;29.20;81.00;;;;;;4989668;28;20201;-76
2021/06/11 12:57:52;;;;;;;13.43;6.22;;;29.20;78.90;;;;;;5006358;28;20743;-75
2021/06/11 13:00:18;;;;;;;11.95;5.75;;;29.20;81.10;;;;;;5011496;28;20225;-76